• Join FlightAware (Why Join?)
  • Login
  • US Flag 
01:57AM EDT


 

Airport Tracker/Info


-or-


 

Live Flight TrackerFlight Track Log ✈ SWA2403 ✈ 16-Apr-2013 ✈ KSDF - KLAS

Flight Track Log - Related Links

Times and Time Zones

All times are in EDT time to prevent confusion due to time zone crossing. See the SWA2403 flight status page for this flight to view local times or setup timezone preferences in your user account.

Time Position Orientation Groundspeed Altitude Reporting Facility
EDT Latitude Longitude Course Direction KTS MPH feet Rate Location/Type
05:02PM 38.1492 -85.7356 175° South 167 192 1,300  Level FAA TRACON SMA TRACON (SMA)
05:03PM 38.1306 -85.7333 175° South 172 198 2,000 1,620 Climbing FAA TRACON SMA TRACON (SMA)
05:03PM 38.1142 -85.7336 181° South 186 214 2,400 1,560 Climbing FAA TRACON SMA TRACON (SMA)
05:03PM 38.0969 -85.7378 191° South 207 238 3,100 2,700 Climbing FAA TRACON SMA TRACON (SMA)
05:04PM 38.0811 -85.7578 225° Southwest 213 245 4,200 2,760 Climbing FAA TRACON SMA TRACON (SMA)
05:04PM 38.0767 -85.7800 256° West 216 249 4,900 2,400 Climbing FAA TRACON SMA TRACON (SMA)
05:04PM 38.0772 -85.8039 272° West 219 252 5,800 3,120 Climbing FAA TRACON SMA TRACON (SMA)
05:05PM 38.0767 -85.8281 268° West 223 257 7,000 3,780 Climbing FAA TRACON SMA TRACON (SMA)
05:05PM 38.0753 -85.8589 267° West 225 259 8,400 3,600 Climbing FAA TRACON SMA TRACON (SMA)
05:05PM 38.0742 -85.8831 267° West 226 260 9,400 3,300 Climbing FAA TRACON SMA TRACON (SMA)
05:06PM 38.0728 -85.9147 267° West 232 267 10,600 2,340 Climbing FAA TRACON SMA TRACON (SMA)
05:06PM 38.0711 -85.9419 266° West 245 282 11,000 1,020 Climbing FAA TRACON SMA TRACON (SMA)
05:06PM 38.0692 -85.9728 265° West 273 314 11,300 2,400 Climbing FAA TRACON SMA TRACON (SMA)
05:07PM 38.0647 -86.0478 266° West 313 360 13,400 3,000 Climbing FAA TRACON SMA TRACON (SMA)
05:07PM 38.0625 -86.0825 265° West 317 365 14,300 2,160 Climbing FAA TRACON SMA TRACON (SMA)
05:08PM 38.0603 -86.1264 266° West 325 374 14,900 1,500 Climbing FAA TRACON SMA TRACON (SMA)
05:08PM 38.0586 -86.1633 267° West 335 386 15,300 1,020 Climbing FAA TRACON SMA TRACON (SMA)
05:08PM 38.0564 -86.1997 266° West 339 390 15,600 720 Climbing FAA TRACON SMA TRACON (SMA)
05:09PM 38.0544 -86.2369 266° West 342 394 15,800 600 Climbing FAA TRACON SMA TRACON (SMA)
05:09PM 38.0511 -86.2833 265° West 344 396 16,000 300 Climbing FAA TRACON SMA TRACON (SMA)
05:09PM 38.0419 -86.3181 251° West 340 391 16,000  Level FAA TRACON SMA TRACON (SMA)
05:10PM 38.0303 -86.3519 246° West 339 390 16,000  Level FAA TRACON SMA TRACON (SMA)
05:10PM 38.0156 -86.3936 246° West 338 389 16,000  Level FAA TRACON SMA TRACON (SMA)
05:10PM 38.0039 -86.4275 246° West 339 390 16,000  Level FAA TRACON SMA TRACON (SMA)
05:11PM 37.9892 -86.4686 246° West 336 387 16,000  Level FAA TRACON SMA TRACON (SMA)
05:11PM 37.9772 -86.5022 246° West 338 389 16,000 120 Level FAA TRACON SMA TRACON (SMA)
05:11PM 37.9661 -86.5361 247° West 338 389 16,100 1,140 Climbing FAA TRACON SMA TRACON (SMA)
05:12PM 37.9511 -86.5781 246° West 342 394 16,800 2,400 Climbing FAA TRACON SMA TRACON (SMA)
05:12PM 37.9378 -86.6125 244° Southwest 349 402 17,700 2,460 Climbing FAA TRACON SMA TRACON (SMA)
05:12PM 37.9267 -86.6481 248° West 353 406 18,400 2,280 Climbing FAA TRACON SMA TRACON (SMA)
05:13PM 37.9222 -86.6861 262° West 356 410 19,200 2,580 Climbing FAA TRACON SMA TRACON (SMA)
05:13PM 37.9350 -86.7333 289° West 366 421 20,200 2,580 Climbing FAA TRACON SMA TRACON (SMA)
05:13PM 37.9497 -86.7694 297° West 373 429 21,000 2,400 Climbing FAA TRACON SMA TRACON (SMA)
05:14PM 37.9675 -86.8153 296° West 375 432 21,800 2,100 Climbing FAA TRACON SMA TRACON (SMA)
05:14PM 37.9833 -86.8525 298° West 380 437 22,400 1,860 Climbing FAA TRACON SMA TRACON (SMA)
05:15PM 37.9981 -86.8933 295° West 379 436 23,200 2,040 Climbing Indianapolis Center
05:16PM 38.0483 -87.0208 297° West 396 456 25,300 1,980 Climbing Indianapolis Center
05:17PM 38.1000 -87.1531 296° West 408 470 27,300 1,680 Climbing Indianapolis Center
05:18PM 38.1447 -87.2931 292° West 416 479 28,800 1,260 Climbing Indianapolis Center
05:19PM 38.1803 -87.4389 287° West 423 487 30,000 540 Climbing Indianapolis Center
05:20PM 38.2025 -87.5875 281° West 425 489 30,000  Level Indianapolis Center
05:21PM 38.2250 -87.7333 281° West 420 483 30,000  Level Indianapolis Center
05:22PM 38.2444 -87.8806 280° West 421 484 30,000 120 Level Indianapolis Center
05:23PM 38.2656 -88.0303 280° West 426 490 30,300 1,260 Climbing Indianapolis Center
05:24PM 38.2864 -88.1739 281° West 417 480 32,700 1,800 Climbing Indianapolis Center
05:25PM 38.3050 -88.3136 280° West 404 465 34,000 1,020 Climbing Indianapolis Center
05:26PM 38.3253 -88.4553 280° West 404 465 34,900 960 Climbing Indianapolis Center
05:27PM 38.3458 -88.5997 280° West 411 473 36,100 1,260 Climbing Indianapolis Center
05:28PM 38.3697 -88.7725 280° West 411 473 37,600 900 Climbing Indianapolis Center
05:29PM 38.3875 -88.9153 279° West 408 470 38,000 180 Climbing Indianapolis Center
05:30PM 38.4056 -89.0569 279° West 405 466 38,000  Level Indianapolis Center
05:31PM 38.4319 -89.1967 284° West 405 466 38,000  Level Indianapolis Center
05:32PM 38.4772 -89.3314 293° West 411 473 38,000  Level Indianapolis Center
05:33PM 38.5236 -89.4647 294° West 410 472 38,000  Level Indianapolis Center
05:34PM 38.5811 -89.6328 294° West 407 468 38,000  Level Kansas City Center
05:35PM 38.6242 -89.7628 293° West 407 468 38,000  Level Kansas City Center
05:36PM 38.6681 -89.8961 293° West 409 471 38,000  Level Kansas City Center
05:37PM 38.7136 -90.0322 293° West 406 467 38,000  Level Kansas City Center
05:38PM 38.7403 -90.1992 282° West 402 463 38,000  Level Kansas City Center
05:39PM 38.7611 -90.3414 281° West 404 465 38,000  Level Kansas City Center
05:40PM 38.7811 -90.4831 280° West 404 465 38,000  Level Kansas City Center
05:41PM 38.7978 -90.6256 279° West 408 470 38,000  Level Kansas City Center
05:42PM 38.8183 -90.7753 280° West 403 464 38,000  Level Kansas City Center
05:44PM 38.8383 -90.9144 280° West 398 458 38,000  Level Kansas City Center
05:45PM 38.8575 -91.0556 280° West 402 463 38,000  Level Kansas City Center
05:46PM 38.8761 -91.1964 280° West 402 463 38,000  Level Kansas City Center
05:47PM 38.8950 -91.3375 280° West 402 463 38,000  Level Kansas City Center
05:48PM 38.9158 -91.5069 279° West 401 461 38,000  Level Kansas City Center
05:49PM 38.9350 -91.6481 280° West 402 463 38,000  Level Kansas City Center
05:50PM 38.9517 -91.7844 279° West 401 461 38,000  Level Kansas City Center
05:51PM 38.9689 -91.9264 279° West 401 461 38,000  Level Kansas City Center
05:52PM 38.9894 -92.0939 279° West 398 458 38,000  Level Kansas City Center
05:53PM 39.0069 -92.2317 279° West 393 452 38,000  Level Kansas City Center
05:54PM 39.0239 -92.3717 279° West 395 455 38,000  Level Kansas City Center
05:55PM 39.0414 -92.5125 279° West 397 457 38,000  Level Kansas City Center
05:56PM 39.0578 -92.6531 279° West 398 458 38,000  Level Kansas City Center
05:57PM 39.0758 -92.8111 278° West 398 458 38,000  Level Kansas City Center
05:58PM 39.0925 -92.9508 279° West 397 457 38,000  Level Kansas City Center
05:59PM 39.1078 -93.0886 278° West 394 453 38,000  Level Kansas City Center
06:00PM 39.1236 -93.2283 278° West 395 455 38,000  Level Kansas City Center
06:01PM 39.1389 -93.3683 278° West 395 455 38,000  Level Kansas City Center
06:02PM 39.1578 -93.5275 279° West 398 458 38,000  Level Kansas City Center
06:03PM 39.1731 -93.6611 278° West 394 453 38,000  Level Kansas City Center
06:04PM 39.1897 -93.8178 278° West 396 456 38,000  Level Kansas City Center
06:05PM 39.2042 -93.9511 278° West 392 451 38,000  Level Kansas City Center
06:06PM 39.2206 -94.1058 278° West 389 448 38,000  Level Kansas City Center
06:07PM 39.2344 -94.2386 278° West 391 450 38,000  Level Kansas City Center
06:08PM 39.2508 -94.3933 278° West 390 449 38,000  Level Kansas City Center
06:09PM 39.2642 -94.5247 278° West 386 444 38,000  Level Kansas City Center
06:10PM 39.2792 -94.6794 277° West 388 447 38,000  Level Kansas City Center
06:11PM 39.2881 -94.8108 275° West 387 445 38,000  Level Kansas City Center
06:12PM 39.2886 -94.9658 270° West 386 444 38,000  Level Kansas City Center
06:14PM 39.2911 -95.0967 271° West 383 441 38,000  Level Kansas City Center
06:15PM 39.2928 -95.2572 271° West 388 447 38,000  Level Kansas City Center
06:16PM 39.2967 -95.3964 272° West 388 447 38,000  Level Kansas City Center
06:17PM 39.2975 -95.5325 270° West 387 445 38,000  Level Kansas City Center
06:18PM 39.2989 -95.6642 271° West 386 444 38,000  Level Kansas City Center
06:19PM 39.3000 -95.8178 271° West 384 442 38,000  Level Kansas City Center
06:20PM 39.3011 -95.9503 271° West 384 442 38,000  Level Kansas City Center
06:21PM 39.3017 -96.1042 270° West 385 443 38,000  Level Kansas City Center
06:22PM 39.3017 -96.2428 270° West 387 445 38,000  Level Kansas City Center
06:23PM 39.3028 -96.3806 271° West 386 444 38,000  Level Kansas City Center
06:24PM 39.3033 -96.5258 270° West 388 447 38,000  Level Kansas City Center
06:25PM 39.3036 -96.6817 270° West 388 447 38,000  Level Kansas City Center
06:26PM 39.3042 -96.8167 270° West 391 450 38,000  Level Kansas City Center
06:27PM 39.3044 -96.9739 270° West 393 452 38,000  Level Kansas City Center
06:28PM 39.3036 -97.1086 270° West 392 451 38,000  Level Kansas City Center
06:29PM 39.3033 -97.2650 270° West 392 451 38,000  Level Kansas City Center
06:30PM 39.3036 -97.3989 270° West 390 449 38,000  Level Kansas City Center
06:31PM 39.3044 -97.5542 270° West 390 449 38,000  Level Kansas City Center
06:32PM 39.3031 -97.6942 269° West 390 449 38,000  Level Kansas City Center
06:33PM 39.3025 -97.8317 270° West 385 443 38,000  Level Kansas City Center
06:34PM 39.3000 -97.9764 269° West 390 449 38,000  Level Kansas City Center
06:35PM 39.2989 -98.1114 269° West 393 452 38,000  Level Kansas City Center
06:36PM 39.2978 -98.2578 269° West 399 459 38,000  Level Kansas City Center
06:37PM 39.2961 -98.4022 269° West 399 459 38,100  Climbing Denver Center
06:38PM 39.2942 -98.5472 269° West 402 463 38,000  Descending Denver Center
06:39PM 39.2917 -98.6917 269° West 402 463 38,100  Climbing Denver Center
06:40PM 39.2897 -98.8344 269° West 399 459 38,100 -60 Level Denver Center
06:41PM 39.2875 -98.9839 269° West 395 455 38,000 -60 Descending Denver Center
06:42PM 39.2842 -99.1194 268° West 395 455 38,000  Level Denver Center
06:43PM 39.2814 -99.2747 269° West 389 448 38,000  Level Denver Center
06:44PM 39.2789 -99.4089 269° West 391 450 38,000  Level Denver Center
06:45PM 39.2744 -99.5661 268° West 392 451 38,000  Level Denver Center
06:46PM 39.2728 -99.7019 269° West 396 456 38,000  Level Denver Center
06:48PM 39.2686 -99.8606 268° West 394 453 38,000  Level Denver Center
06:49PM 39.2647 -100.0206 268° West 398 458 38,000  Level Denver Center
06:50PM 39.2597 -100.1786 268° West 396 456 38,000  Level Denver Center
06:51PM 39.2672 -100.3178 274° West 402 463 38,000  Level Denver Center
06:52PM 39.2825 -100.4786 277° West 403 464 38,000  Level Denver Center
06:53PM 39.2950 -100.6172 277° West 405 466 38,000  Level Denver Center
06:54PM 39.3064 -100.7528 276° West 400 460 38,000  Level Denver Center
06:55PM 39.3217 -100.9142 277° West 403 464 38,000  Level Denver Center
06:56PM 39.3333 -101.0522 276° West 404 465 38,000  Level Denver Center
06:57PM 39.3481 -101.2111 277° West 401 461 38,000  Level Denver Center
06:58PM 39.3589 -101.3447 276° West 393 452 38,100  Climbing Denver Center
06:59PM 39.3722 -101.5044 276° West 399 459 38,000 -60 Descending Denver Center
07:00PM 39.3839 -101.6383 276° West 394 453 38,000  Level Denver Center
07:01PM 39.3761 -101.7731 266° West 392 451 38,000  Level Denver Center
07:02PM 39.3536 -101.9225 259° West 383 441 38,000  Level Denver Center
07:03PM 39.3372 -102.0281 259° West 378 435 38,000  Level Denver Center
07:04PM 39.3125 -102.1819 258° West 377 434 38,000  Level Denver Center
07:05PM 39.2892 -102.3286 258° West 374 430 38,000  Level Denver Center
07:06PM 39.2703 -102.4514 259° West 366 421 38,000  Level Denver Center
07:07PM 39.2483 -102.5925 259° West 361 415 38,000  Level Denver Center
07:08PM 39.2292 -102.7117 258° West 357 411 38,000  Level Denver Center
07:09PM 39.2092 -102.8414 259° West 364 419 38,000  Level Denver Center
07:10PM 39.1883 -102.9689 258° West 361 415 38,000  Level Denver Center
07:11PM 39.1633 -103.1200 258° West 365 420 38,000  Level Denver Center
07:12PM 39.1431 -103.2500 259° West 367 422 38,100  Climbing Denver Center
07:13PM 39.1222 -103.3814 258° West 370 426 38,000  Descending Denver Center
07:14PM 39.0986 -103.5147 257° West 376 433 38,100  Climbing Denver Center
07:15PM 39.0767 -103.6478 258° West 378 435 38,100 -60 Level Denver Center
07:16PM 39.0542 -103.7803 258° West 377 434 38,000 -60 Descending Denver Center
07:17PM 39.0308 -103.9142 257° West 378 435 38,000  Level Denver Center
07:18PM 39.0081 -104.0497 258° West 382 440 38,000  Level Denver Center
07:20PM 38.9883 -104.1633 257° West 386 444 38,000  Level Denver Center
07:21PM 38.9611 -104.3222 258° West 389 448 38,000  Level Denver Center
07:22PM 38.9317 -104.4908 257° West 408 470 38,000  Level Denver Center
07:23PM 38.9069 -104.6325 257° West 403 464 38,000  Level Denver Center
07:24PM 38.8817 -104.7708 257° West 394 453 38,000  Level Denver Center
07:25PM 38.8578 -104.9100 258° West 395 455 38,000  Level Denver Center
07:26PM 38.8319 -105.0461 256° West 391 450 38,100  Climbing Denver Center
07:27PM 38.8078 -105.1811 257° West 387 445 38,100  Level Denver Center
07:28PM 38.7833 -105.3147 257° West 381 438 38,100 -60 Level Denver Center
07:29PM 38.7583 -105.4483 257° West 383 441 38,000 -60 Descending Denver Center
07:30PM 38.7342 -105.5811 257° West 381 438 38,000  Level Denver Center
07:31PM 38.7053 -105.7344 256° West 375 432 38,000  Level Denver Center
07:32PM 38.6806 -105.8647 256° West 372 428 38,000  Level Denver Center
07:33PM 38.6561 -105.9939 256° West 373 429 38,000  Level Denver Center
07:34PM 38.6319 -106.1244 257° West 374 430 38,000  Level Denver Center
07:35PM 38.6086 -106.2406 256° West 374 430 38,000  Level Denver Center
07:36PM 38.5844 -106.3692 257° West 369 425 38,000  Level Denver Center
07:37PM 38.5544 -106.5183 256° West 361 415 38,000  Level Denver Center
07:38PM 38.5300 -106.6447 256° West 362 417 38,000  Level Denver Center
07:39PM 38.5050 -106.7697 256° West 361 415 38,000  Level Denver Center
07:40PM 38.4808 -106.8967 256° West 364 419 38,000 -60 Level Denver Center
07:41PM 38.4544 -107.0236 255° West 367 422 37,900 -540 Descending Denver Center
07:42PM 38.4256 -107.1178 249° West 358 412 37,000 -900 Descending Denver Center
07:43PM 38.3736 -107.2753 247° West 355 409 36,100 -480 Descending Denver Center
07:44PM 38.3361 -107.3875 247° West 358 412 36,000 -60 Descending Denver Center
07:45PM 38.2931 -107.5169 247° West 356 410 36,000  Level Denver Center
07:46PM 38.2572 -107.6261 247° West 351 404 36,100  Climbing Denver Center
07:47PM 38.2147 -107.7525 247° West 347 399 36,000 -60 Descending Denver Center
07:48PM 38.1775 -107.8617 247° West 349 402 36,000  Level Denver Center
07:49PM 38.1464 -107.9522 246° West 351 404 36,000  Level Denver Center
07:50PM 38.0972 -108.0967 247° West 350 403 36,000  Level Denver Center
07:52PM 38.0586 -108.2103 247° West 347 399 36,000  Level Denver Center
07:53PM 38.0161 -108.3358 247° West 347 399 36,000  Level Denver Center
07:54PM 37.9792 -108.4408 246° West 345 397 36,000  Level Denver Center
07:55PM 37.9425 -108.5472 246° West 343 395 36,000  Level Denver Center
07:56PM 37.8989 -108.6717 246° West 346 398 36,000  Level Denver Center
07:57PM 37.8614 -108.7808 247° West 351 404 36,000  Level Denver Center
07:58PM 37.8167 -108.9072 246° West 353 406 36,000  Level Denver Center
07:59PM 37.7869 -109.0192 251° West 353 406 36,000  Level Denver Center
08:00PM 37.7547 -109.1483 253° West 347 399 36,100  Climbing Denver Center
08:01PM 37.7275 -109.2586 253° West 344 396 36,000 -60 Descending Denver Center
08:02PM 37.6956 -109.3881 253° West 345 397 36,000  Level Denver Center
08:03PM 37.6675 -109.5000 252° West 349 402 36,000  Level Denver Center
08:04PM 37.6344 -109.6294 252° West 350 403 36,000  Level Denver Center
08:05PM 37.6061 -109.7428 253° West 355 409 36,000  Level Denver Center
08:06PM 37.5769 -109.8561 252° West 353 406 36,000  Level Denver Center
08:07PM 37.5428 -109.9886 252° West 357 411 36,000  Level Denver Center
08:08PM 37.5139 -110.1000 252° West 350 403 36,000  Level Denver Center
08:09PM 37.4806 -110.2311 252° West 353 406 36,000  Level Denver Center
08:10PM 37.4547 -110.3358 253° West 349 402 36,000  Level Denver Center
08:11PM 37.4172 -110.4750 251° West 351 404 36,000  Level Denver Center
08:12PM 37.3875 -110.5914 252° West 350 403 36,100  Climbing Denver Center
08:13PM 37.3572 -110.7100 252° West 354 407 36,000 -60 Descending Denver Center
08:14PM 37.3261 -110.8267 251° West 353 406 36,000 -300 Level Denver Center
08:15PM 37.3011 -110.9217 252° West 357 411 35,500 -840 Descending Denver Center
08:16PM 37.2628 -111.0606 251° West 352 405 34,300 -1,080 Descending Denver Center
08:17PM 37.2350 -111.1697 252° West 336 387 33,300 -1,080 Descending Denver Center
08:18PM 37.2006 -111.3050 252° West 337 388 32,200 -660 Descending Denver Center
08:19PM 37.1672 -111.4256 251° West 355 409 32,000 -120 Descending Denver Center
08:20PM 37.1456 -111.5431 257° West 347 399 32,000  Level Denver Center
08:21PM 37.1211 -111.6589 255° West 344 396 32,000  Level Denver Center
08:22PM 37.0967 -111.7758 255° West 346 398 32,000  Level Denver Center
08:23PM 37.0703 -111.8919 254° West 346 398 32,000 -480 Level Denver Center
08:24PM 37.0456 -112.0092 255° West 347 399 31,100 -960 Descending Denver Center
08:25PM 37.0200 -112.1250 255° West 346 398 30,100 -1,140 Descending Denver Center
08:26PM 37.0036 -112.1925 253° West 334 384 29,500 -1,140 Descending Los Angeles Center
08:27PM 36.9806 -112.2986 255° West 319 367 28,500 -1,020 Descending Los Angeles Center
08:28PM 36.9581 -112.4028 255° West 312 359 27,400 -1,020 Descending Los Angeles Center
08:29PM 36.9353 -112.5089 255° West 315 362 26,400 -960 Descending Los Angeles Center
08:30PM 36.9117 -112.6136 254° West 313 360 25,500 -960 Descending Los Angeles Center
08:31PM 36.8886 -112.7169 254° West 310 357 24,500 -780 Descending Los Angeles Center
08:32PM 36.8606 -112.8389 254° West 305 351 24,000 -300 Descending Los Angeles Center
08:33PM 36.8383 -112.9394 255° West 301 346 24,000  Level Los Angeles Center
08:34PM 36.8197 -113.0192 254° West 300 345 24,000  Level Los Angeles Center
08:35PM 36.7922 -113.1419 254° West 304 350 24,000  Level Los Angeles Center
08:36PM 36.7686 -113.2439 254° West 305 351 24,000  Level Los Angeles Center
08:38PM 36.7411 -113.3686 255° West 310 357 24,000  Level Los Angeles Center
08:39PM 36.7122 -113.4919 254° West 310 357 24,000  Level Los Angeles Center
08:40PM 36.6889 -113.5956 254° West 310 357 24,000  Level Los Angeles Center
08:41PM 36.6644 -113.6983 254° West 310 357 24,000  Level Los Angeles Center
08:42PM 36.6400 -113.8033 254° West 314 361 24,000 -300 Level Los Angeles Center
08:43PM 36.6161 -113.9069 254° West 313 360 23,500 -1,260 Descending Los Angeles Center
08:44PM 36.5925 -114.0075 254° West 305 351 21,500 -2,040 Descending Los Angeles Center
08:45PM 36.5664 -114.1064 252° West 302 348 19,300 -2,400 Descending Los Angeles Center
08:46PM 36.5139 -114.2197 240° Southwest 332 382 16,600 -2,520 Descending Los Angeles Center
08:47PM 36.4633 -114.3358 242° Southwest 332 382 14,200 -2,220 Descending Los Angeles Center
08:48PM 36.4233 -114.4272 241° Southwest 330 380 12,300 -1,440 Descending Los Angeles Center
08:49PM 36.3608 -114.4967 222° Southwest 296 341 11,500 -1,080 Descending Los Angeles Center
08:50PM 36.2969 -114.5503 214° Southwest 277 319 10,200 -1,140 Descending Los Angeles Center
08:51PM 36.2347 -114.6008 213° Southwest 277 319 9,300 -1,140 Descending Los Angeles Center
08:52PM 36.1831 -114.6797 231° Southwest 275 316 8,000 -1,020 Descending Los Angeles Center
08:53PM 36.1406 -114.7525 234° Southwest 260 299 7,300 -840 Descending Los Angeles Center
08:54PM 36.1142 -114.8281 247° West 240 276 6,300 -780 Descending Los Angeles Center
08:55PM 36.0925 -114.8967 249° West 220 253 5,800 -480 Descending Los Angeles Center
08:55PM 36.0878 -114.9036 230° Southwest 237 273 5,700 -1,200 Descending Los Angeles Center
08:56PM 36.0747 -114.9636 255° West 200 230 4,600 -1,200 Descending Los Angeles Center
08:56PM 36.0717 -114.9667 219° Southwest 215 247 4,500 -1,020 Descending Los Angeles Center
08:57PM 36.0736 -115.0281 272° West 185 213 3,600 -780 Descending Los Angeles Center
08:57PM 36.0731 -115.0189 94° East 202 232 3,700 -900 Climbing Los Angeles Center
08:58PM 36.0739 -115.0786 271° West 146 168 2,700 -1,200 Descending Los Angeles Center
08:58PM 36.0736 -115.0925 269° West 170 196 2,500 -480 Descending Los Angeles Center
08:59PM 36.0731 -115.1333 269° West 158 182 2,100 -420 Descending Los Angeles Center
09:01PM 36.0667 -115.1500 219° Southwest  Level FlightAware Approximate